Time;durP1;ratioP1;P1;durP2;ratioP2;P2;SDS_P1;SDS_P2;PMS_P1;PMS_P2;Temp;Humidity;BMP_temperature;BMP_pressure;BME280_temperature;BME280_humidity;BME280_pressure;Samples;Min_cycle;Max_cycle;Signal;HPM_P1;HPM_P2
2021/05/21 00:01:17;;;;;;;5.53;1.90;;;18.90;38.00;;;;;;5076059;28;20033;-79
2021/05/21 00:03:44;;;;;;;7.95;1.38;;;19.10;38.30;;;;;;5076221;28;20424;-81
2021/05/21 00:06:10;;;;;;;7.35;2.40;;;19.00;38.10;;;;;;5088949;28;20085;-81
2021/05/21 00:08:36;;;;;;;6.30;1.83;;;18.90;38.20;;;;;;5055322;28;20020;-78
2021/05/21 00:11:03;;;;;;;10.68;3.15;;;18.70;38.90;;;;;;5072916;28;20025;-79
2021/05/21 00:13:30;;;;;;;8.38;2.53;;;18.90;38.20;;;;;;5074137;28;20431;-80
2021/05/21 00:15:56;;;;;;;13.38;2.17;;;18.80;38.70;;;;;;5057303;28;20077;-79
2021/05/21 00:18:22;;;;;;;3.35;1.92;;;18.60;39.60;;;;;;5068434;28;20029;-79
2021/05/21 00:20:49;;;;;;;5.43;2.47;;;18.60;39.30;;;;;;5067689;28;20090;-80
2021/05/21 00:23:17;;;;;;;6.82;2.92;;;18.50;39.60;;;;;;5073394;28;20617;-79
2021/05/21 00:25:43;;;;;;;7.22;1.75;;;18.40;40.10;;;;;;5063890;28;20359;-79
2021/05/21 00:28:10;;;;;;;6.57;2.10;;;18.50;39.90;;;;;;5064606;28;20029;-78
2021/05/21 00:30:37;;;;;;;12.68;2.13;;;18.40;40.10;;;;;;5055411;28;20021;-79
2021/05/21 00:33:03;;;;;;;10.77;2.42;;;18.60;40.00;;;;;;5062609;28;20057;-79
2021/05/21 00:35:30;;;;;;;3.20;1.33;;;18.60;39.60;;;;;;5074322;28;20032;-77
2021/05/21 00:37:56;;;;;;;6.85;1.50;;;18.40;40.20;;;;;;5057483;28;20064;-78
2021/05/21 00:40:23;;;;;;;8.88;2.53;;;18.40;40.40;;;;;;5057872;28;20092;-78
2021/05/21 00:42:50;;;;;;;5.43;1.42;;;18.70;40.00;;;;;;5073060;28;20040;-79
2021/05/21 00:45:16;;;;;;;10.85;3.72;;;18.70;40.10;;;;;;5059394;28;20375;-79
2021/05/21 00:47:43;;;;;;;8.75;2.20;;;18.70;40.00;;;;;;5051122;28;20029;-79
2021/05/21 00:50:09;;;;;;;6.30;2.92;;;18.70;39.90;;;;;;5066964;28;20511;-79
2021/05/21 00:52:38;;;;;;;10.32;2.67;;;18.60;40.40;;;;;;5071543;28;20044;-77
2021/05/21 00:55:07;;;;;;;11.40;2.85;;;18.50;40.90;;;;;;5063380;28;20024;-78
2021/05/21 00:57:33;;;;;;;5.10;1.95;;;18.50;40.50;;;;;;5062138;28;20029;-79
2021/05/21 00:59:59;;;;;;;10.77;2.58;;;18.30;40.60;;;;;;5076857;28;20056;-80
2021/05/21 01:02:26;;;;;;;8.63;2.30;;;18.40;41.00;;;;;;5082141;28;20112;-79
2021/05/21 01:04:52;;;;;;;7.28;2.13;;;18.20;41.00;;;;;;5059462;28;20398;-81
2021/05/21 01:07:19;;;;;;;12.43;3.08;;;18.20;40.90;;;;;;5060186;28;20047;-80
2021/05/21 01:09:45;;;;;;;7.55;3.17;;;18.10;41.60;;;;;;5072473;28;20025;-79
2021/05/21 01:12:12;;;;;;;4.88;1.75;;;18.20;41.10;;;;;;5062837;28;20032;-79
2021/05/21 01:14:56;;;;;;;5.22;2.17;;;18.20;40.70;;;;;;5073182;28;20025;-79
2021/05/21 01:17:24;;;;;;;10.95;2.45;;;18.40;39.50;;;;;;5071173;28;20020;-79
2021/05/21 01:19:52;;;;;;;10.63;2.17;;;18.20;40.10;;;;;;5079239;28;20029;-79
2021/05/21 01:22:18;;;;;;;8.13;2.03;;;18.20;40.40;;;;;;5075548;28;20025;-79
2021/05/21 01:24:46;;;;;;;22.20;6.63;;;18.00;40.60;;;;;;5075845;28;20044;-80
2021/05/21 01:27:13;;;;;;;4.72;2.95;;;17.90;41.30;;;;;;5055828;28;20059;-79
2021/05/21 01:29:40;;;;;;;3.40;1.73;;;17.80;41.50;;;;;;5060302;28;20044;-80
2021/05/21 01:32:11;;;;;;;9.98;2.47;;;17.60;41.80;;;;;;5067815;28;20128;-80
2021/05/21 01:34:39;;;;;;;12.77;2.63;;;17.60;41.80;;;;;;5063373;28;20024;-79
2021/05/21 01:37:20;;;;;;;16.60;5.75;;;17.70;41.70;;;;;;5050006;28;20150;-80
2021/05/21 01:39:47;;;;;;;49.92;16.05;;;17.80;41.50;;;;;;5067108;28;20064;-78
2021/05/21 01:42:15;;;;;;;10.82;6.45;;;17.70;41.70;;;;;;5085103;28;20031;-78
2021/05/21 01:44:41;;;;;;;9.63;2.03;;;17.60;41.90;;;;;;5078911;28;20028;-78
2021/05/21 01:47:11;;;;;;;9.80;4.25;;;17.50;42.50;;;;;;5076722;28;20027;-80
2021/05/21 01:49:38;;;;;;;12.40;3.40;;;17.20;42.70;;;;;;5074721;28;20048;-78
2021/05/21 01:52:05;;;;;;;9.80;2.40;;;17.20;43.00;;;;;;5067997;28;20819;-78
2021/05/21 01:54:31;;;;;;;11.43;2.97;;;17.40;42.90;;;;;;5056346;28;20057;-80
2021/05/21 01:56:58;;;;;;;6.30;2.45;;;17.40;42.40;;;;;;5072847;28;20078;-80
2021/05/21 01:59:25;;;;;;;5.32;2.13;;;17.40;42.40;;;;;;5078762;28;20095;-80
2021/05/21 02:01:53;;;;;;;9.35;3.30;;;17.40;42.50;;;;;;5052920;28;20124;-79
2021/05/21 02:04:37;;;;;;;11.90;3.33;;;17.00;43.30;;;;;;5072631;28;20051;-79
2021/05/21 02:07:05;;;;;;;8.15;2.45;;;16.90;43.90;;;;;;5063381;28;20429;-80
2021/05/21 02:09:59;;;;;;;11.85;4.93;;;16.60;44.50;;;;;;5063275;28;20078;-80
2021/05/21 02:12:27;;;;;;;7.95;2.05;;;16.60;44.60;;;;;;5073340;28;20036;-80
2021/05/21 02:14:58;;;;;;;7.88;2.25;;;16.60;45.40;;;;;;5059206;28;20396;-79
2021/05/21 02:17:26;;;;;;;13.32;3.95;;;16.60;45.30;;;;;;5078143;28;20020;-79
2021/05/21 02:19:57;;;;;;;5.43;2.53;;;16.60;45.40;;;;;;5073667;28;20989;-80
2021/05/21 02:22:24;;;;;;;12.18;3.47;;;16.60;45.50;;;;;;5047027;28;20029;-79
2021/05/21 02:24:54;;;;;;;8.32;2.75;;;16.30;45.80;;;;;;5068926;28;20032;-80
2021/05/21 02:27:22;;;;;;;7.03;3.53;;;16.30;45.90;;;;;;5053448;28;20337;-80
2021/05/21 02:29:52;;;;;;;10.68;2.50;;;16.40;45.70;;;;;;5075811;28;20021;-78
2021/05/21 02:32:18;;;;;;;12.70;2.83;;;16.10;46.00;;;;;;5071800;28;20050;-79
2021/05/21 02:34:48;;;;;;;14.02;3.75;;;16.10;46.30;;;;;;5082951;28;20043;-80
2021/05/21 02:37:14;;;;;;;9.95;2.60;;;16.00;46.40;;;;;;5084612;28;20085;-80
2021/05/21 02:39:41;;;;;;;18.58;3.55;;;15.90;47.00;;;;;;5064179;28;20051;-79
2021/05/21 02:42:07;;;;;;;7.38;2.38;;;16.00;46.80;;;;;;5078405;28;20448;-80
2021/05/21 02:44:34;;;;;;;13.73;3.08;;;15.60;46.90;;;;;;5049910;28;20044;-79
2021/05/21 02:47:00;;;;;;;10.18;3.63;;;15.60;47.90;;;;;;5092548;28;20020;-80
2021/05/21 02:49:29;;;;;;;12.73;3.83;;;15.50;47.40;;;;;;5068162;28;20031;-79
2021/05/21 02:51:55;;;;;;;11.95;3.22;;;15.50;48.00;;;;;;5072730;28;20032;-79
2021/05/21 02:54:22;;;;;;;10.23;2.03;;;15.50;48.00;;;;;;5073942;28;20482;-79
2021/05/21 02:56:49;;;;;;;7.55;2.20;;;15.40;48.40;;;;;;5066579;28;20406;-78
2021/05/21 02:59:15;;;;;;;12.10;3.85;;;15.20;49.00;;;;;;5079902;28;20077;-79
2021/05/21 03:01:41;;;;;;;10.65;2.75;;;15.20;49.50;;;;;;5077788;28;20020;-79
2021/05/21 03:04:08;;;;;;;11.10;4.25;;;15.40;48.70;;;;;;5061787;28;20048;-79
2021/05/21 03:06:35;;;;;;;11.57;4.28;;;15.20;49.10;;;;;;5068985;28;20435;-78
2021/05/21 03:09:02;;;;;;;7.88;3.45;;;15.30;49.90;;;;;;5072171;28;20032;-80
2021/05/21 03:11:28;;;;;;;8.05;3.13;;;15.10;49.80;;;;;;5072841;28;20028;-80
2021/05/21 03:13:54;;;;;;;6.75;2.83;;;15.00;49.50;;;;;;5073872;28;20078;-79
2021/05/21 03:16:21;;;;;;;10.63;2.63;;;15.00;50.00;;;;;;5064619;28;20030;-79
2021/05/21 03:18:47;;;;;;;8.60;3.08;;;15.00;50.00;;;;;;5074757;28;20032;-80
2021/05/21 03:21:14;;;;;;;9.77;3.33;;;14.90;50.40;;;;;;5051970;28;20033;-79
2021/05/21 03:23:40;;;;;;;8.60;4.05;;;14.70;51.20;;;;;;5058910;28;20471;-79
2021/05/21 03:26:06;;;;;;;9.65;3.08;;;14.70;51.40;;;;;;5067969;28;20025;-80
2021/05/21 03:28:33;;;;;;;9.55;2.95;;;14.80;52.20;;;;;;5075625;28;20024;-79
2021/05/21 03:30:59;;;;;;;13.57;3.30;;;14.70;51.60;;;;;;5074270;28;20102;-80
2021/05/21 03:33:26;;;;;;;8.38;3.75;;;14.70;51.60;;;;;;5070469;28;20036;-79
2021/05/21 03:35:52;;;;;;;14.05;2.67;;;14.60;51.90;;;;;;5073875;28;20028;-78
2021/05/21 03:38:18;;;;;;;11.60;3.03;;;14.70;52.60;;;;;;5073545;28;20159;-80
2021/05/21 03:40:45;;;;;;;9.35;3.70;;;14.60;52.80;;;;;;5058704;28;20119;-80
2021/05/21 03:43:11;;;;;;;12.70;3.35;;;14.50;52.80;;;;;;5068839;28;20020;-80
2021/05/21 03:45:38;;;;;;;7.82;2.35;;;14.60;52.50;;;;;;5072136;28;20107;-79
2021/05/21 03:48:05;;;;;;;11.85;3.30;;;14.60;51.50;;;;;;5054630;28;20116;-78
2021/05/21 03:50:31;;;;;;;8.80;3.58;;;14.60;53.50;;;;;;5053717;28;20024;-79
2021/05/21 03:52:58;;;;;;;13.77;5.90;;;14.50;52.00;;;;;;5069565;28;20079;-78
2021/05/21 03:55:24;;;;;;;13.30;3.72;;;14.40;52.90;;;;;;5073702;28;20043;-78
2021/05/21 03:57:51;;;;;;;10.48;3.45;;;14.60;52.40;;;;;;5071549;28;20021;-78
2021/05/21 04:00:20;;;;;;;14.00;4.93;;;14.50;53.80;;;;;;5054936;28;20020;-75
2021/05/21 04:02:50;;;;;;;6.85;2.33;;;14.60;52.20;;;;;;5054937;28;20408;-77
2021/05/21 04:05:18;;;;;;;22.88;4.93;;;14.50;52.40;;;;;;5068159;28;20095;-80
2021/05/21 04:07:45;;;;;;;14.45;3.83;;;14.40;52.60;;;;;;5063120;28;20467;-77
2021/05/21 04:10:12;;;;;;;14.48;2.78;;;14.30;53.20;;;;;;5078249;28;20025;-80
2021/05/21 04:12:38;;;;;;;14.23;4.60;;;14.50;53.30;;;;;;5076136;28;20035;-79
2021/05/21 04:15:06;;;;;;;14.50;3.13;;;14.40;52.00;;;;;;5056377;28;20566;-80
2021/05/21 04:17:33;;;;;;;14.23;5.03;;;14.40;51.30;;;;;;5067910;28;20043;-79
2021/05/21 04:19:59;;;;;;;9.88;4.03;;;14.40;52.20;;;;;;5059787;28;20035;-79
2021/05/21 04:22:26;;;;;;;9.20;2.20;;;14.40;51.30;;;;;;5059781;28;20033;-79
2021/05/21 04:24:53;;;;;;;6.55;2.85;;;14.50;51.30;;;;;;5045098;28;20107;-79
2021/05/21 04:27:19;;;;;;;12.05;3.22;;;14.60;52.00;;;;;;5074672;28;20024;-79
2021/05/21 04:29:48;;;;;;;7.05;3.22;;;14.60;51.30;;;;;;5051332;28;20127;-79
2021/05/21 04:32:15;;;;;;;11.98;3.65;;;14.60;51.30;;;;;;5043199;28;20086;-79
2021/05/21 04:34:42;;;;;;;9.88;3.80;;;14.40;51.90;;;;;;5070259;28;20047;-79
2021/05/21 04:37:09;;;;;;;20.33;4.07;;;14.30;52.40;;;;;;5078365;28;20029;-79
2021/05/21 04:39:35;;;;;;;14.80;5.60;;;14.30;52.20;;;;;;5075713;28;20057;-79
2021/05/21 04:42:01;;;;;;;8.85;2.75;;;14.30;52.90;;;;;;5059575;28;20337;-79
2021/05/21 04:44:28;;;;;;;10.80;3.95;;;14.30;51.90;;;;;;5060259;28;20024;-79
2021/05/21 04:46:54;;;;;;;12.77;3.67;;;14.30;52.30;;;;;;5057743;28;20064;-79
2021/05/21 04:49:39;;;;;;;7.55;3.85;;;14.30;52.60;;;;;;5058781;28;20017;-80
2021/05/21 04:52:08;;;;;;;14.32;5.38;;;14.40;53.50;;;;;;5066807;28;20057;-79
2021/05/21 04:54:36;;;;;;;13.43;3.83;;;14.30;53.20;;;;;;5064894;28;20067;-79
2021/05/21 04:57:03;;;;;;;17.67;4.00;;;14.30;53.60;;;;;;5053353;28;20463;-80
2021/05/21 04:59:30;;;;;;;13.93;4.38;;;14.30;54.60;;;;;;5053832;28;20816;-79
2021/05/21 05:02:00;;;;;;;21.23;3.53;;;14.50;54.20;;;;;;5055146;28;20028;-78
2021/05/21 05:04:26;;;;;;;14.15;3.90;;;14.20;54.70;;;;;;5058892;28;20032;-78
2021/05/21 05:06:52;;;;;;;16.48;4.55;;;14.20;55.10;;;;;;5079185;28;20031;-78
2021/05/21 05:09:19;;;;;;;15.23;3.78;;;14.20;54.20;;;;;;5062447;28;20025;-78
2021/05/21 05:11:46;;;;;;;14.85;3.58;;;13.90;56.40;;;;;;5067136;28;20426;-78
2021/05/21 05:14:13;;;;;;;8.38;4.20;;;14.00;54.30;;;;;;5070178;28;20033;-79
2021/05/21 05:16:42;;;;;;;10.48;3.78;;;14.00;55.30;;;;;;5061893;28;20043;-77
2021/05/21 05:19:10;;;;;;;12.57;4.32;;;14.10;55.20;;;;;;5062628;28;20036;-77
2021/05/21 05:21:42;;;;;;;9.15;3.45;;;14.10;54.40;;;;;;5060336;28;20029;-78
2021/05/21 05:24:22;;;;;;;10.68;3.05;;;14.10;55.30;;;;;;5075958;28;20021;-78
2021/05/21 05:26:49;;;;;;;12.45;3.25;;;14.30;54.60;;;;;;5061394;28;20021;-77
2021/05/21 05:29:15;;;;;;;21.63;3.30;;;14.20;55.60;;;;;;5054248;28;20212;-78
2021/05/21 05:31:46;;;;;;;11.85;3.33;;;13.80;56.90;;;;;;5077301;28;20020;-78
2021/05/21 05:34:14;;;;;;;9.52;2.63;;;13.80;55.60;;;;;;5060609;28;20111;-78
2021/05/21 05:36:41;;;;;;;11.40;2.53;;;13.80;56.10;;;;;;5077717;28;20478;-78
2021/05/21 05:39:08;;;;;;;11.82;3.45;;;14.00;55.30;;;;;;5060900;28;20024;-78
2021/05/21 05:41:35;;;;;;;8.85;3.63;;;14.20;55.20;;;;;;5076123;28;20028;-79
2021/05/21 05:44:01;;;;;;;8.52;4.40;;;14.20;55.10;;;;;;5058362;28;20363;-78
2021/05/21 05:46:27;;;;;;;7.38;3.30;;;14.10;54.30;;;;;;5045562;28;20027;-79
2021/05/21 05:48:54;;;;;;;18.05;4.75;;;14.30;54.30;;;;;;5058573;28;20452;-79
2021/05/21 05:51:21;;;;;;;9.23;2.78;;;14.20;54.90;;;;;;5040587;28;20119;-78
2021/05/21 05:53:50;;;;;;;7.53;3.70;;;14.30;55.70;;;;;;5075774;28;20029;-79
2021/05/21 05:56:16;;;;;;;11.27;3.83;;;14.30;54.90;;;;;;5082675;28;20020;-77
2021/05/21 05:58:43;;;;;;;9.40;3.00;;;14.30;55.30;;;;;;5055786;28;20028;-78
2021/05/21 06:01:09;;;;;;;20.13;5.03;;;14.20;55.70;;;;;;5057161;28;20419;-79
2021/05/21 06:03:36;;;;;;;9.73;3.15;;;14.00;55.60;;;;;;5059720;28;20033;-79
2021/05/21 06:06:03;;;;;;;16.38;4.60;;;14.00;56.30;;;;;;5045904;28;20028;-79
2021/05/21 06:08:29;;;;;;;13.13;3.78;;;14.00;55.90;;;;;;5055884;28;20468;-79
2021/05/21 06:10:57;;;;;;;16.42;3.70;;;13.90;55.40;;;;;;5076062;28;20048;-79
2021/05/21 06:13:27;;;;;;;10.80;4.32;;;14.00;56.00;;;;;;5078090;28;20028;-78
2021/05/21 06:15:53;;;;;;;7.82;3.75;;;14.10;55.40;;;;;;5076406;28;20043;-78
2021/05/21 06:18:21;;;;;;;20.02;4.07;;;14.10;56.20;;;;;;5077266;28;20360;-78
2021/05/21 06:20:48;;;;;;;21.88;5.30;;;14.00;55.50;;;;;;5077047;28;20386;-78
2021/05/21 06:23:15;;;;;;;7.40;3.30;;;14.00;54.90;;;;;;5047179;28;20028;-79
2021/05/21 06:28:13;;;;;;;9.13;2.50;;;13.70;55.80;;;;;;5082852;28;20020;-79
2021/05/21 06:30:39;;;;;;;7.57;2.50;;;13.60;56.10;;;;;;5066915;28;20031;-78
2021/05/21 06:33:06;;;;;;;5.50;2.83;;;13.50;56.60;;;;;;5087958;28;20036;-78
2021/05/21 06:35:34;;;;;;;13.38;3.67;;;13.50;55.90;;;;;;5051493;28;20047;-79
2021/05/21 06:38:01;;;;;;;8.82;2.90;;;13.40;56.40;;;;;;5055927;28;20043;-78
2021/05/21 06:40:27;;;;;;;8.43;1.92;;;13.60;55.40;;;;;;5059126;28;20444;-78
2021/05/21 06:42:54;;;;;;;9.60;2.30;;;13.80;54.90;;;;;;5079176;28;20101;-79
2021/05/21 06:45:20;;;;;;;13.73;3.58;;;13.70;54.70;;;;;;5065433;28;20023;-79
2021/05/21 06:47:46;;;;;;;11.80;5.07;;;13.90;54.20;;;;;;5061074;28;20025;-79
2021/05/21 06:50:13;;;;;;;12.32;3.08;;;13.80;54.00;;;;;;5070235;28;20031;-79
2021/05/21 06:52:41;;;;;;;6.95;3.25;;;13.90;53.90;;;;;;5067586;28;20035;-79
2021/05/21 06:55:08;;;;;;;12.73;2.70;;;14.00;53.60;;;;;;5075590;28;20035;-78
2021/05/21 06:57:35;;;;;;;3.30;2.50;;;13.80;54.10;;;;;;5074170;28;20095;-78
2021/05/21 07:00:06;;;;;;;15.48;4.38;;;13.80;54.20;;;;;;5056124;28;20026;-79
2021/05/21 07:02:33;;;;;;;9.25;2.35;;;13.90;53.50;;;;;;5067537;28;20031;-79
2021/05/21 07:04:59;;;;;;;9.05;2.33;;;13.80;53.70;;;;;;5075442;28;20020;-79
2021/05/21 07:07:27;;;;;;;4.63;3.38;;;14.00;53.10;;;;;;5057111;28;20025;-80
2021/05/21 07:09:53;;;;;;;5.20;2.72;;;14.10;52.70;;;;;;5062295;28;20519;-78
2021/05/21 07:12:20;;;;;;;15.70;3.03;;;14.00;53.10;;;;;;5074287;28;20052;-77
2021/05/21 07:14:46;;;;;;;5.70;2.58;;;13.90;53.60;;;;;;5072663;28;21319;-78
2021/05/21 07:17:12;;;;;;;10.70;2.55;;;13.90;53.30;;;;;;5064449;28;20082;-78
2021/05/21 07:19:39;;;;;;;5.00;2.13;;;14.00;53.00;;;;;;5073751;28;20039;-78
2021/05/21 07:22:08;;;;;;;3.70;2.40;;;14.10;52.50;;;;;;5075999;28;20029;-77
2021/05/21 07:24:35;;;;;;;6.25;1.98;;;14.00;52.50;;;;;;5062923;28;20028;-78
2021/05/21 07:27:03;;;;;;;15.20;2.92;;;14.00;52.30;;;;;;5070415;28;20553;-78
2021/05/21 07:29:29;;;;;;;9.60;3.33;;;14.20;52.00;;;;;;5057380;28;20024;-78
2021/05/21 07:31:55;;;;;;;11.27;3.50;;;14.00;52.50;;;;;;5064886;28;20047;-77
2021/05/21 07:34:22;;;;;;;6.63;2.80;;;14.00;52.70;;;;;;5046803;28;20506;-77
2021/05/21 07:36:48;;;;;;;4.15;1.90;;;13.90;52.70;;;;;;5068041;28;20111;-77
2021/05/21 07:39:16;;;;;;;5.93;2.60;;;14.20;52.70;;;;;;5061192;28;20359;-77
2021/05/21 07:41:43;;;;;;;4.30;1.67;;;14.10;52.30;;;;;;5074490;28;20039;-77
2021/05/21 07:44:10;;;;;;;9.07;2.45;;;14.00;52.70;;;;;;5074039;28;20482;-77
2021/05/21 07:46:37;;;;;;;11.45;2.72;;;13.80;53.10;;;;;;5074034;28;20052;-77
2021/05/21 07:49:04;;;;;;;12.27;3.40;;;13.80;53.20;;;;;;5074536;28;20032;-77
2021/05/21 07:51:34;;;;;;;6.65;2.03;;;13.80;53.40;;;;;;5072944;28;20031;-77
2021/05/21 07:54:00;;;;;;;5.90;2.25;;;13.90;53.20;;;;;;5055323;28;20027;-77
2021/05/21 07:56:27;;;;;;;5.95;1.75;;;13.90;53.00;;;;;;5068679;28;20025;-77
2021/05/21 07:58:53;;;;;;;11.13;2.63;;;13.80;53.20;;;;;;5074862;28;20028;-77
2021/05/21 08:01:20;;;;;;;16.95;3.13;;;13.90;53.20;;;;;;5074310;28;20083;-77
2021/05/21 08:03:48;;;;;;;3.28;2.95;;;13.90;53.00;;;;;;5072072;28;20024;-77
2021/05/21 08:06:15;;;;;;;3.28;2.03;;;13.90;53.10;;;;;;5065610;28;20018;-77
2021/05/21 08:08:42;;;;;;;6.32;2.53;;;14.00;52.50;;;;;;5045799;28;20402;-77
2021/05/21 08:11:08;;;;;;;11.63;2.80;;;14.10;52.50;;;;;;5062296;28;20025;-77
2021/05/21 08:13:39;;;;;;;7.45;3.70;;;14.00;52.70;;;;;;5073182;28;20427;-77
2021/05/21 08:16:10;;;;;;;7.95;3.10;;;13.90;52.80;;;;;;5053813;28;20055;-77
2021/05/21 08:18:37;;;;;;;7.03;2.47;;;13.90;53.20;;;;;;5054656;28;20044;-77
2021/05/21 08:21:04;;;;;;;7.07;2.83;;;13.80;53.30;;;;;;5070451;28;20083;-77
2021/05/21 08:23:31;;;;;;;6.25;2.40;;;13.80;53.10;;;;;;5073947;28;20028;-77
2021/05/21 08:25:57;;;;;;;9.00;2.50;;;13.90;53.70;;;;;;5061342;28;20494;-77
2021/05/21 08:28:25;;;;;;;6.40;2.88;;;13.90;53.60;;;;;;5069078;28;20459;-77
2021/05/21 08:30:52;;;;;;;3.53;2.20;;;13.70;53.40;;;;;;5073669;28;20024;-77
2021/05/21 08:33:19;;;;;;;9.40;3.05;;;13.70;53.70;;;;;;5048911;28;20482;-78
2021/05/21 08:35:47;;;;;;;7.22;2.47;;;13.70;53.60;;;;;;5060612;28;20040;-77
2021/05/21 08:38:14;;;;;;;15.43;3.47;;;13.80;54.40;;;;;;5073811;28;20340;-78
2021/05/21 08:40:41;;;;;;;9.02;2.38;;;13.80;53.30;;;;;;5069716;28;20104;-77
2021/05/21 08:43:09;;;;;;;4.60;2.90;;;13.70;53.40;;;;;;5065562;28;20029;-78
2021/05/21 08:45:36;;;;;;;4.35;2.40;;;13.80;53.30;;;;;;5084349;28;20020;-77
2021/05/21 08:48:03;;;;;;;13.07;2.70;;;13.60;53.60;;;;;;5073916;28;20028;-77
2021/05/21 08:50:30;;;;;;;13.57;3.17;;;13.60;53.70;;;;;;5056191;28;20024;-77
2021/05/21 08:52:57;;;;;;;13.25;2.58;;;13.50;54.10;;;;;;5040060;28;20048;-77
2021/05/21 08:55:24;;;;;;;8.32;2.83;;;13.50;54.50;;;;;;5079417;28;20024;-77
2021/05/21 08:57:51;;;;;;;11.95;2.83;;;13.40;54.50;;;;;;5080702;28;20027;-77
2021/05/21 09:00:18;;;;;;;11.07;3.30;;;13.50;54.80;;;;;;5055884;28;20025;-77
2021/05/21 09:02:44;;;;;;;8.57;2.75;;;13.50;54.50;;;;;;5060378;28;20025;-77
2021/05/21 09:05:11;;;;;;;12.68;3.47;;;13.60;53.90;;;;;;5063798;28;20040;-77
2021/05/21 09:07:42;;;;;;;14.57;4.35;;;13.60;54.50;;;;;;5053578;28;20078;-77
2021/05/21 09:10:14;;;;;;;11.30;2.58;;;13.70;54.30;;;;;;5070975;28;20082;-78
2021/05/21 09:12:48;;;;;;;2.58;2.38;;;13.60;54.00;;;;;;5072880;28;20013;-78
2021/05/21 09:15:22;;;;;;;10.02;3.00;;;13.30;55.00;;;;;;5089018;28;20399;-78
2021/05/21 09:17:59;;;;;;;10.95;2.97;;;13.50;54.10;;;;;;5043019;28;20131;-77
2021/05/21 09:20:32;;;;;;;5.22;2.97;;;13.80;53.80;;;;;;5056771;28;20029;-78
2021/05/21 09:23:00;;;;;;;8.88;2.28;;;13.60;53.60;;;;;;5058186;28;20494;-76
2021/05/21 09:25:36;;;;;;;16.42;3.40;;;13.60;53.60;;;;;;5077030;28;20032;-80
2021/05/21 09:28:02;;;;;;;6.50;2.75;;;13.50;53.70;;;;;;5070321;28;20045;-78
2021/05/21 09:30:29;;;;;;;13.02;3.30;;;13.40;53.70;;;;;;5077074;28;20352;-77
2021/05/21 09:33:03;;;;;;;10.93;2.40;;;13.40;54.10;;;;;;5074925;28;20023;-80
2021/05/21 09:35:30;;;;;;;11.07;2.45;;;13.40;53.90;;;;;;5075519;28;20039;-77
2021/05/21 09:37:56;;;;;;;6.55;2.67;;;13.30;54.10;;;;;;5079783;28;20032;-77
2021/05/21 09:40:26;;;;;;;10.02;4.00;;;13.30;53.90;;;;;;5079745;28;20024;-77
2021/05/21 09:43:06;;;;;;;10.23;3.15;;;13.40;54.10;;;;;;5077005;28;20060;-77
2021/05/21 09:45:35;;;;;;;2.55;2.03;;;13.40;53.60;;;;;;5059524;28;20025;-77
2021/05/21 09:48:05;;;;;;;5.65;1.83;;;13.50;53.20;;;;;;5076703;28;20052;-78
2021/05/21 09:50:38;;;;;;;5.32;2.60;;;13.40;53.40;;;;;;5077188;28;20017;-77
2021/05/21 09:53:06;;;;;;;9.63;4.32;;;13.40;53.40;;;;;;5069142;28;20104;-80
2021/05/21 09:55:45;;;;;;;6.57;2.65;;;13.30;53.40;;;;;;5041814;28;20108;-80
2021/05/21 09:58:31;;;;;;;9.38;3.75;;;13.20;53.90;;;;;;5078784;28;20089;-80
2021/05/21 10:01:21;;;;;;;4.82;2.33;;;13.10;53.40;;;;;;5064710;28;20028;-79
2021/05/21 10:03:58;;;;;;;10.45;2.75;;;13.00;53.90;;;;;;5052787;28;20358;-79
2021/05/21 10:06:27;;;;;;;3.65;2.13;;;12.90;54.60;;;;;;5062183;28;20100;-79
2021/05/21 10:09:03;;;;;;;7.00;2.75;;;12.90;54.60;;;;;;5072424;28;20028;-79
2021/05/21 10:11:32;;;;;;;7.13;2.47;;;12.90;54.50;;;;;;5065163;28;20035;-79
2021/05/21 10:13:58;;;;;;;5.95;2.95;;;12.80;54.80;;;;;;5073081;28;20033;-79
2021/05/21 10:16:25;;;;;;;7.97;2.47;;;12.80;54.70;;;;;;5056563;28;20131;-77
2021/05/21 10:18:55;;;;;;;4.55;2.58;;;12.70;54.60;;;;;;5063063;28;20028;-79
2021/05/21 10:21:23;;;;;;;9.32;2.42;;;12.70;54.40;;;;;;5067198;28;20032;-79
2021/05/21 10:24:01;;;;;;;6.45;2.35;;;12.60;54.70;;;;;;5073895;28;20028;-78
2021/05/21 10:26:38;;;;;;;4.78;2.15;;;12.50;55.00;;;;;;5065851;28;20337;-79
2021/05/21 10:29:19;;;;;;;10.02;2.88;;;12.50;53.70;;;;;;5060645;28;20383;-78
2021/05/21 10:31:45;;;;;;;9.18;3.22;;;12.60;53.40;;;;;;5047868;28;20416;-78
2021/05/21 10:34:23;;;;;;;8.35;4.00;;;12.50;53.90;;;;;;5076314;28;20058;-79
2021/05/21 10:36:50;;;;;;;4.85;2.65;;;12.40;53.70;;;;;;5075858;28;20052;-78
2021/05/21 10:39:21;;;;;;;11.05;3.08;;;12.40;54.70;;;;;;5075891;28;20082;-79
2021/05/21 10:41:55;;;;;;;12.67;4.63;;;12.30;53.80;;;;;;5075672;28;20021;-78
2021/05/21 10:44:36;;;;;;;12.20;3.50;;;12.20;54.40;;;;;;5075960;28;20046;-78
2021/05/21 10:47:17;;;;;;;14.05;3.55;;;12.30;53.90;;;;;;5075781;28;20025;-78
2021/05/21 10:50:04;;;;;;;7.00;2.85;;;12.20;54.00;;;;;;5074956;28;20025;-78
2021/05/21 10:52:54;;;;;;;13.15;2.90;;;12.00;54.70;;;;;;5042385;28;20048;-78
2021/05/21 10:55:41;;;;;;;12.32;3.88;;;12.00;54.00;;;;;;5067107;28;20107;-78
2021/05/21 10:58:14;;;;;;;12.70;2.92;;;12.10;53.80;;;;;;5045727;28;20051;-78
2021/05/21 11:00:41;;;;;;;7.88;4.30;;;11.90;55.00;;;;;;5075499;28;20020;-77
2021/05/21 11:03:07;;;;;;;4.82;2.40;;;11.80;55.30;;;;;;5075225;28;20463;-78
2021/05/21 11:05:35;;;;;;;6.28;4.25;;;11.80;54.30;;;;;;5075808;28;20033;-78
2021/05/21 11:08:11;;;;;;;5.55;2.58;;;11.80;54.20;;;;;;5075117;28;20021;-78
2021/05/21 11:10:37;;;;;;;9.68;2.97;;;11.80;54.10;;;;;;5057399;28;20024;-78
2021/05/21 11:13:10;;;;;;;12.20;3.42;;;11.80;54.30;;;;;;5056840;28;20032;-78
2021/05/21 11:15:42;;;;;;;4.15;2.63;;;11.70;55.10;;;;;;5060935;28;20035;-78
2021/05/21 11:18:12;;;;;;;10.18;3.22;;;11.60;55.30;;;;;;5056379;28;20062;-78
2021/05/21 11:21:06;;;;;;;7.47;3.63;;;11.50;54.40;;;;;;5074720;28;20028;-78
2021/05/21 11:24:06;;;;;;;7.43;2.75;;;11.40;54.60;;;;;;5074836;28;20440;-78
2021/05/21 11:26:41;;;;;;;5.28;2.88;;;11.40;54.60;;;;;;5054779;28;20051;-78
2021/05/21 11:29:08;;;;;;;8.63;2.75;;;11.40;54.80;;;;;;5070951;28;20021;-77
2021/05/21 11:31:37;;;;;;;5.95;2.60;;;11.40;55.40;;;;;;5056194;28;20103;-78
2021/05/21 11:34:09;;;;;;;8.40;3.20;;;11.30;55.20;;;;;;5085344;28;20046;-78
2021/05/21 11:36:36;;;;;;;5.47;2.53;;;11.30;55.10;;;;;;5054691;28;20033;-78
2021/05/21 11:39:05;;;;;;;5.45;2.88;;;11.20;56.60;;;;;;5075108;28;20364;-79
2021/05/21 11:41:34;;;;;;;5.68;2.40;;;11.20;55.30;;;;;;5056248;28;20475;-79
2021/05/21 11:44:08;;;;;;;8.30;2.80;;;11.10;56.30;;;;;;5074825;28;20043;-78
2021/05/21 11:46:43;;;;;;;5.45;2.53;;;11.10;55.80;;;;;;5061225;28;20036;-79
2021/05/21 11:49:19;;;;;;;4.57;2.67;;;11.00;56.80;;;;;;5075010;28;20017;-79
2021/05/21 11:52:01;;;;;;;4.65;2.58;;;11.00;55.60;;;;;;5072687;28;20036;-76
2021/05/21 11:54:28;;;;;;;4.60;2.55;;;11.10;55.10;;;;;;5055029;28;20032;-76
2021/05/21 11:56:57;;;;;;;8.80;3.53;;;11.00;55.00;;;;;;5074786;28;20017;-79
2021/05/21 11:59:24;;;;;;;8.00;3.00;;;11.10;55.00;;;;;;5075730;28;20078;-77
2021/05/21 12:01:56;;;;;;;6.32;3.78;;;11.00;55.20;;;;;;5061382;28;20032;-77
2021/05/21 12:04:28;;;;;;;4.20;2.63;;;11.00;55.90;;;;;;5074778;28;20028;-79
2021/05/21 12:06:54;;;;;;;9.85;5.28;;;11.10;56.00;;;;;;5068017;28;20110;-77
2021/05/21 12:09:22;;;;;;;7.45;3.53;;;11.10;55.80;;;;;;5065570;28;20035;-77
2021/05/21 12:11:50;;;;;;;5.35;3.15;;;11.10;56.70;;;;;;5044989;28;20040;-77
2021/05/21 12:14:22;;;;;;;10.52;3.75;;;11.10;55.70;;;;;;5076127;28;20081;-77
2021/05/21 12:16:52;;;;;;;2.97;1.80;;;11.10;57.70;;;;;;5052757;28;20021;-77
2021/05/21 12:19:20;;;;;;;11.68;3.45;;;11.10;57.00;;;;;;5074713;28;20063;-77
2021/05/21 12:21:48;;;;;;;4.68;2.58;;;11.10;57.50;;;;;;5073892;28;20102;-76
2021/05/21 12:24:20;;;;;;;8.48;3.13;;;11.10;57.50;;;;;;5074220;28;20439;-77
2021/05/21 12:26:53;;;;;;;2.70;2.03;;;11.00;57.30;;;;;;5056309;28;20028;-77
2021/05/21 12:29:22;;;;;;;2.45;2.00;;;11.10;57.40;;;;;;5060073;28;20068;-77
2021/05/21 12:31:59;;;;;;;5.18;2.47;;;11.10;57.20;;;;;;5069373;28;20052;-77
2021/05/21 12:34:28;;;;;;;7.88;2.80;;;11.00;57.00;;;;;;5050044;28;20024;-77
2021/05/21 12:37:01;;;;;;;6.97;2.55;;;11.10;56.00;;;;;;5063594;28;20029;-77
2021/05/21 12:39:34;;;;;;;5.32;3.70;;;11.00;55.30;;;;;;5065511;28;20028;-77
2021/05/21 12:42:01;;;;;;;5.05;2.78;;;10.90;56.90;;;;;;5056061;28;20115;-77
2021/05/21 12:44:28;;;;;;;2.58;2.15;;;10.90;56.90;;;;;;5072923;28;20024;-77
2021/05/21 12:47:04;;;;;;;3.28;1.90;;;10.80;56.10;;;;;;5081767;28;20053;-76
2021/05/21 12:49:35;;;;;;;4.63;2.30;;;10.80;56.80;;;;;;5064080;28;20464;-77
2021/05/21 12:52:04;;;;;;;5.88;2.30;;;10.70;56.80;;;;;;5078120;28;20033;-76
2021/05/21 12:54:33;;;;;;;8.30;2.53;;;10.70;56.90;;;;;;5061344;28;20437;-77